Tuscumbia, Missouri
Current Conditions -  °F | °C
As of 6:35 AM on Wednesday 26 Nov 2014 (Local Time) from KAIZ Reporting Station
Overcast Overcast  
Wind Chill: 36°   Ceiling: 4900
Heat Index: 36°   Visibility: 10mi
Dew Point: 19°   Wind: 3mph
Humidity: 52%   Direction: 270°W
Pressure: 30"   Gusts: NA
Location:  38.23°N, 92.46°W
Report Text: KAIZ 261235Z AUTO 27003KT 10SM SCT041 BKN049 OVC080 02/M07 A3000 RMK AO1
Loading
Personal Weather Stations






























Interactive Weather Map New forecast layout! Learn more

10-Day Weather Forecast

Advertisements
Track Severe Weather on mobile